📊 Raw Sensor Data
Showing records 34176 to 34200 of 84,832 total
| ID | Distance (ft) | Battery V | Battery A | Int Temp (°F) | Int Humid (%) | Ext Temp (°F) | Solar V | RSSI | SNR | Time Stamp |
|---|---|---|---|---|---|---|---|---|---|---|
| 50669 | 15.8 | 3.87 | 0 | 85 | 41 | 89 | 5.10 | -71 | 7 | 08/30/2025 10:30 AM |
| 50668 | 15.8 | 3.87 | 8 | 83 | 41 | 84 | 5.10 | -71 | 7 | 08/30/2025 10:15 AM |
| 50667 | 15.8 | 3.87 | 8 | 80 | 41 | 81 | 5.10 | -71 | 8 | 08/30/2025 10:00 AM |
| 50666 | 15.8 | 3.87 | 0 | 78 | 41 | 80 | 5.10 | -71 | 8 | 08/30/2025 09:45 AM |
| 50665 | 15.8 | 3.87 | 9 | 75 | 41 | 78 | 5.10 | -72 | 7 | 08/30/2025 09:30 AM |
| 50664 | 15.8 | 3.87 | 0 | 74 | 41 | 77 | 5.10 | -71 | 7 | 08/30/2025 09:15 AM |
| 50663 | 15.7 | 3.87 | 0 | 71 | 41 | 75 | 5.10 | -71 | 7 | 08/30/2025 09:00 AM |
| 50662 | 15.7 | 3.88 | 10 | 69 | 41 | 69 | 5.10 | -72 | 8 | 08/30/2025 08:45 AM |
| 50661 | 15.7 | 3.88 | 0 | 68 | 41 | 70 | 5.10 | -71 | 7 | 08/30/2025 08:30 AM |
| 50660 | 15.7 | 4.06 | 99 | 66 | 41 | 68 | 4.50 | -72 | 8 | 08/30/2025 08:15 AM |
| 50659 | 15.6 | 4.05 | 57 | 64 | 41 | 68 | 4.50 | -71 | 8 | 08/30/2025 08:00 AM |
| 50658 | 15.6 | 3.92 | 48 | 62 | 42 | 68 | 4.50 | -71 | 8 | 08/30/2025 07:45 AM |
| 50657 | 15.6 | 3.87 | 15 | 59 | 42 | 68 | 4.50 | -70 | 8 | 08/30/2025 07:30 AM |
| 50656 | 15.5 | 3.83 | 12 | 57 | 43 | 64 | 4.50 | -71 | 8 | 08/30/2025 07:15 AM |
| 50655 | 15.5 | 3.86 | 0 | 55 | 43 | 59 | 4.60 | -71 | 8 | 08/30/2025 07:00 AM |
| 50654 | 15.4 | 3.79 | -9 | 54 | 44 | 55 | 1.50 | -72 | 8 | 08/30/2025 06:30 AM |
| 50653 | 15.4 | 3.79 | -5 | 55 | 44 | 56 | 0.20 | -71 | 7 | 08/30/2025 06:15 AM |
| 50652 | 15.5 | 3.79 | -5 | 55 | 44 | 57 | 0.00 | -72 | 8 | 08/30/2025 06:00 AM |
| 50651 | 15.4 | 3.79 | -5 | 55 | 44 | 58 | 0.00 | -71 | 8 | 08/30/2025 05:45 AM |
| 50650 | 15.4 | 3.79 | -5 | 55 | 44 | 57 | 0.00 | -72 | 7 | 08/30/2025 05:30 AM |
| 50649 | 15.5 | 3.85 | -5 | 55 | 44 | 57 | 0.00 | -71 | 8 | 08/30/2025 05:15 AM |
| 50648 | 15.5 | 3.85 | -5 | 55 | 44 | 57 | 0.00 | -71 | 8 | 08/30/2025 05:00 AM |
| 50647 | 15.5 | 3.85 | -5 | 55 | 44 | 58 | 0.00 | -71 | 8 | 08/30/2025 04:45 AM |
| 50646 | 15.5 | 3.79 | -5 | 55 | 44 | 57 | 0.10 | -71 | 8 | 08/30/2025 04:30 AM |
| 50645 | 15.5 | 3.79 | -5 | 55 | 44 | 57 | 0.00 | -71 | 8 | 08/30/2025 04:15 AM |